createdAt,value
2023-05-23T00:00:54.089Z,17.81
2023-05-23T00:03:23.017Z,17.86
2023-05-23T00:05:50.865Z,17.89
2023-05-23T00:08:17.922Z,17.86
2023-05-23T00:10:45.313Z,17.94
2023-05-23T00:13:15.339Z,17.97
2023-05-23T00:15:42.553Z,18.18
2023-05-23T00:18:11.799Z,18.19
2023-05-23T00:20:40.942Z,17.94
2023-05-23T00:23:09.911Z,17.92
2023-05-23T00:25:37.204Z,17.68
2023-05-23T00:28:04.964Z,17.60
2023-05-23T00:30:33.528Z,17.81
2023-05-23T00:33:00.719Z,17.89
2023-05-23T00:35:27.935Z,17.68
2023-05-23T00:37:55.634Z,17.58
2023-05-23T00:40:23.692Z,17.66
2023-05-23T00:42:50.383Z,17.38
2023-05-23T00:45:17.875Z,17.36
2023-05-23T00:47:45.290Z,17.28
2023-05-23T00:50:14.692Z,17.43
2023-05-23T00:52:43.067Z,17.50
2023-05-23T00:55:10.413Z,17.61
2023-05-23T00:57:41.680Z,17.41
2023-05-23T01:00:10.184Z,17.30
2023-05-23T01:02:45.098Z,17.24
2023-05-23T01:05:14.915Z,17.22
2023-05-23T01:07:41.747Z,17.16
2023-05-23T01:10:10.149Z,17.06
2023-05-23T01:12:46.451Z,16.90
2023-05-23T01:15:16.929Z,16.96
2023-05-23T01:18:08.388Z,17.06
2023-05-23T01:20:40.170Z,16.99
2023-05-23T01:23:34.133Z,17.01
2023-05-23T01:26:32.703Z,17.07
2023-05-23T01:29:10.541Z,17.00
2023-05-23T01:31:42.947Z,17.05
2023-05-23T01:34:10.678Z,17.02
2023-05-23T01:36:42.502Z,16.87
2023-05-23T01:39:09.445Z,16.83
2023-05-23T01:41:36.714Z,16.93
2023-05-23T01:44:04.160Z,16.95
2023-05-23T01:46:32.892Z,16.93
2023-05-23T01:49:02.410Z,17.05
2023-05-23T01:51:30.625Z,17.05
2023-05-23T01:53:57.984Z,17.17
2023-05-23T01:56:25.125Z,17.14
2023-05-23T01:58:51.878Z,17.02
2023-05-23T02:01:18.911Z,16.92
2023-05-23T02:03:45.835Z,16.79
2023-05-23T02:06:12.526Z,16.80
2023-05-23T02:08:39.270Z,16.75
2023-05-23T02:11:05.936Z,16.79
2023-05-23T02:13:32.496Z,16.82
2023-05-23T02:15:59.162Z,16.85
2023-05-23T02:18:29.989Z,16.84
2023-05-23T02:20:56.961Z,16.73
2023-05-23T02:23:23.544Z,16.75
2023-05-23T02:25:50.180Z,16.68
2023-05-23T02:28:16.796Z,16.76
2023-05-23T02:30:43.368Z,16.79
2023-05-23T02:33:10.942Z,16.85
2023-05-23T02:35:37.533Z,16.81
2023-05-23T02:38:04.194Z,16.75
2023-05-23T02:40:30.763Z,16.73
2023-05-23T02:42:57.919Z,16.69
2023-05-23T02:45:24.811Z,16.68
2023-05-23T02:47:51.439Z,16.66
2023-05-23T02:50:18.034Z,16.53
2023-05-23T02:52:45.043Z,16.51
2023-05-23T02:55:11.619Z,16.48
2023-05-23T02:57:38.153Z,16.51
2023-05-23T03:00:05.178Z,16.58
2023-05-23T03:02:31.844Z,16.66
2023-05-23T03:04:59.191Z,16.67
2023-05-23T03:07:28.461Z,16.66
2023-05-23T03:09:56.621Z,16.63
2023-05-23T03:12:23.207Z,16.64
2023-05-23T03:14:49.808Z,16.55
2023-05-23T03:17:16.594Z,16.50
2023-05-23T03:19:43.216Z,16.57
2023-05-23T03:22:09.859Z,16.42
2023-05-23T03:24:36.673Z,16.46
2023-05-23T03:27:03.382Z,16.41
2023-05-23T03:29:30.782Z,16.45
2023-05-23T03:31:57.407Z,16.50
2023-05-23T03:34:26.477Z,16.52
2023-05-23T03:36:53.314Z,16.48
2023-05-23T03:39:19.939Z,16.46
2023-05-23T03:41:46.572Z,16.44
2023-05-23T03:44:14.726Z,16.48
2023-05-23T03:46:41.632Z,16.40
2023-05-23T03:49:08.319Z,16.47
2023-05-23T03:51:34.907Z,16.34
2023-05-23T03:54:02.129Z,16.30
2023-05-23T03:56:28.743Z,16.40
2023-05-23T03:58:55.458Z,16.25
2023-05-23T04:01:22.241Z,16.22
2023-05-23T04:03:49.390Z,16.10
2023-05-23T04:06:17.360Z,16.11
2023-05-23T04:08:44.075Z,16.07
2023-05-23T04:11:10.808Z,16.13
2023-05-23T04:13:38.339Z,16.06
2023-05-23T04:16:05.969Z,16.05
2023-05-23T04:18:39.175Z,15.99
2023-05-23T04:21:06.213Z,15.97
2023-05-23T04:23:33.675Z,16.07
2023-05-23T04:26:00.573Z,16.06
2023-05-23T04:28:27.874Z,15.97
2023-05-23T04:30:54.598Z,15.93
2023-05-23T04:33:21.759Z,15.92
2023-05-23T04:35:49.403Z,15.95
2023-05-23T04:38:16.033Z,16.01
2023-05-23T04:40:43.012Z,15.99
2023-05-23T04:43:10.211Z,15.96
2023-05-23T04:45:36.814Z,16.01
2023-05-23T04:48:03.883Z,16.03
2023-05-23T04:50:33.265Z,15.96
2023-05-23T04:52:59.984Z,15.91
2023-05-23T04:55:26.732Z,15.97
2023-05-23T04:57:53.555Z,15.94
2023-05-23T05:00:20.503Z,16.04
2023-05-23T05:02:47.111Z,16.19
2023-05-23T05:05:13.734Z,16.09
2023-05-23T05:07:40.682Z,16.23
2023-05-23T05:10:08.049Z,16.33
2023-05-23T05:12:34.828Z,15.88
2023-05-23T05:15:03.466Z,15.93
2023-05-23T05:17:30.280Z,15.81
2023-05-23T05:19:57.038Z,15.84
2023-05-23T05:22:24.005Z,15.49
2023-05-23T05:24:50.646Z,15.41
2023-05-23T05:27:17.223Z,15.44
2023-05-23T05:29:44.105Z,15.48
2023-05-23T05:32:10.727Z,15.42
2023-05-23T05:34:38.187Z,15.57
2023-05-23T05:37:05.104Z,15.63
2023-05-23T05:39:31.694Z,15.63
2023-05-23T05:41:59.371Z,15.53
2023-05-23T05:44:27.120Z,15.47
2023-05-23T05:46:53.764Z,15.31
2023-05-23T05:49:20.334Z,15.43
2023-05-23T05:51:46.965Z,15.31
2023-05-23T05:54:13.552Z,15.25
2023-05-23T05:56:40.653Z,15.22
2023-05-23T05:59:07.209Z,15.28
2023-05-23T06:01:34.915Z,15.47
2023-05-23T06:04:01.745Z,15.32
2023-05-23T06:06:28.424Z,15.26
2023-05-23T06:08:55.098Z,15.28
2023-05-23T06:11:21.723Z,15.35
2023-05-23T06:13:48.301Z,15.48
2023-05-23T06:16:15.382Z,15.39
2023-05-23T06:18:42.243Z,15.47
2023-05-23T06:21:09.419Z,15.42
2023-05-23T06:23:36.180Z,15.32
2023-05-23T06:26:02.964Z,15.52
2023-05-23T06:28:29.529Z,15.61
2023-05-23T06:30:56.080Z,15.65
2023-05-23T06:33:22.675Z,15.56
2023-05-23T06:35:49.634Z,15.81
2023-05-23T06:38:17.794Z,15.62
2023-05-23T06:40:44.609Z,15.33
2023-05-23T06:43:11.417Z,15.41
2023-05-23T06:45:38.734Z,15.49
2023-05-23T06:48:05.896Z,15.27
2023-05-23T06:50:32.673Z,15.46
2023-05-23T06:52:59.232Z,15.64
2023-05-23T06:55:25.893Z,15.72
2023-05-23T06:57:52.573Z,15.68
2023-05-23T07:00:19.516Z,15.68
2023-05-23T07:02:48.697Z,15.73
2023-05-23T07:05:16.313Z,15.90
2023-05-23T07:07:44.258Z,15.85
2023-05-23T07:10:11.098Z,15.84
2023-05-23T07:12:40.188Z,15.86
2023-05-23T07:15:07.971Z,15.84
2023-05-23T07:17:36.332Z,15.76
2023-05-23T07:20:04.643Z,16.00
2023-05-23T07:22:31.580Z,16.09
2023-05-23T07:24:58.211Z,16.24
2023-05-23T07:27:25.092Z,16.23
2023-05-23T07:29:51.821Z,16.42
2023-05-23T07:32:18.543Z,16.52
2023-05-23T07:34:45.834Z,16.55
2023-05-23T07:37:12.421Z,16.22
2023-05-23T07:39:38.994Z,16.34
2023-05-23T07:42:05.727Z,16.70
2023-05-23T07:44:32.396Z,16.79
2023-05-23T07:46:59.035Z,17.06
2023-05-23T07:49:25.820Z,17.33
2023-05-23T07:51:52.420Z,17.46
2023-05-23T07:54:18.985Z,17.57
2023-05-23T07:56:45.854Z,17.49
2023-05-23T07:59:13.378Z,17.37
2023-05-23T08:01:40.482Z,17.53
2023-05-23T08:04:07.289Z,17.67
2023-05-23T08:06:33.928Z,17.56
2023-05-23T08:09:01.783Z,17.63
2023-05-23T08:11:30.385Z,17.66
2023-05-23T08:13:58.052Z,17.88
2023-05-23T08:16:28.008Z,17.64
2023-05-23T08:18:54.730Z,17.97
2023-05-23T08:21:21.345Z,17.98
2023-05-23T08:23:48.288Z,18.00
2023-05-23T08:26:15.617Z,18.20
2023-05-23T08:28:42.160Z,18.50
2023-05-23T08:31:08.741Z,18.36
2023-05-23T08:33:35.394Z,18.61
2023-05-23T08:36:01.987Z,18.54
2023-05-23T08:38:28.610Z,18.40
2023-05-23T08:40:56.782Z,18.69
2023-05-23T08:43:23.489Z,18.77
2023-05-23T08:45:52.345Z,18.57
2023-05-23T08:48:21.206Z,18.87
2023-05-23T08:50:49.628Z,18.88
2023-05-23T08:53:20.537Z,18.59
2023-05-23T08:55:55.862Z,18.95
2023-05-23T08:58:24.803Z,18.59
2023-05-23T09:00:53.770Z,19.01
2023-05-23T09:03:21.274Z,18.90
2023-05-23T09:05:50.144Z,19.02
2023-05-23T09:08:16.902Z,19.27
2023-05-23T09:10:43.766Z,18.97
2023-05-23T09:13:10.517Z,18.93
2023-05-23T09:15:37.701Z,18.83
2023-05-23T09:18:04.419Z,19.17
2023-05-23T09:20:31.080Z,19.13
2023-05-23T09:22:57.700Z,19.44
2023-05-23T09:25:24.328Z,19.11
2023-05-23T09:27:53.474Z,19.29
2023-05-23T09:30:20.128Z,19.09
2023-05-23T09:32:59.438Z,19.37
2023-05-23T09:35:28.606Z,19.77
2023-05-23T09:37:59.055Z,19.92
2023-05-23T09:40:33.266Z,20.13
2023-05-23T09:43:04.814Z,20.19
2023-05-23T09:45:32.545Z,20.39
2023-05-23T09:47:59.307Z,19.97
2023-05-23T09:50:32.378Z,19.49
2023-05-23T09:53:00.394Z,19.63
2023-05-23T09:55:27.447Z,19.79
2023-05-23T09:57:56.824Z,20.22
2023-05-23T10:00:27.213Z,20.46
2023-05-23T10:03:13.206Z,20.64
2023-05-23T10:05:51.973Z,20.94
2023-05-23T10:08:36.565Z,20.93
2023-05-23T10:11:16.629Z,20.63
2023-05-23T10:13:49.462Z,20.53
2023-05-23T10:16:31.509Z,20.62
2023-05-23T10:19:04.275Z,20.79
2023-05-23T10:21:36.171Z,20.59
2023-05-23T10:24:07.277Z,20.76
2023-05-23T10:26:33.992Z,20.53
2023-05-23T10:29:01.262Z,20.72
2023-05-23T10:31:29.277Z,20.84
2023-05-23T10:34:15.473Z,20.75
2023-05-23T10:36:51.012Z,21.07
2023-05-23T10:39:35.694Z,20.71
2023-05-23T10:42:10.051Z,20.67
2023-05-23T10:44:36.672Z,20.93
2023-05-23T10:47:04.512Z,21.21
2023-05-23T10:49:42.107Z,21.60
2023-05-23T10:52:10.983Z,21.93
2023-05-23T10:54:50.566Z,22.11
2023-05-23T10:57:19.883Z,22.11
2023-05-23T10:59:47.482Z,22.15
2023-05-23T11:02:16.387Z,22.35
2023-05-23T11:04:43.445Z,22.51
2023-05-23T11:07:30.474Z,22.39
2023-05-23T11:10:23.643Z,22.53
2023-05-23T11:12:50.261Z,21.83
2023-05-23T11:15:16.785Z,21.70
2023-05-23T11:17:53.617Z,21.88
2023-05-23T11:20:23.641Z,22.05
2023-05-23T11:22:55.322Z,21.99
2023-05-23T11:25:39.153Z,22.00
2023-05-23T11:28:06.285Z,21.74
2023-05-23T11:30:33.764Z,21.61
2023-05-23T11:33:00.643Z,21.93
2023-05-23T11:35:28.220Z,21.97
2023-05-23T11:37:57.845Z,22.25
2023-05-23T11:40:46.443Z,22.37
2023-05-23T11:43:17.908Z,22.47
2023-05-23T11:45:46.980Z,22.65
2023-05-23T11:48:16.669Z,22.73
2023-05-23T11:50:53.795Z,22.51
2023-05-23T11:53:22.600Z,22.33
2023-05-23T11:55:57.739Z,22.06
2023-05-23T11:58:30.515Z,22.27
2023-05-23T12:01:08.322Z,22.39
2023-05-23T12:03:36.128Z,22.25
2023-05-23T12:06:03.019Z,22.28
2023-05-23T12:08:29.924Z,22.37
2023-05-23T12:11:01.470Z,22.29
2023-05-23T12:13:31.691Z,22.30
2023-05-23T12:16:00.762Z,22.17
2023-05-23T12:18:32.601Z,22.12
2023-05-23T12:21:05.804Z,21.91
2023-05-23T12:23:35.063Z,22.08
2023-05-23T12:26:07.073Z,22.26
2023-05-23T12:28:41.148Z,22.20
2023-05-23T12:31:16.242Z,22.38
2023-05-23T12:33:45.360Z,22.67
2023-05-23T12:36:12.412Z,22.46
2023-05-23T12:38:40.897Z,22.23
2023-05-23T12:41:09.549Z,22.38
2023-05-23T12:43:49.646Z,22.43
2023-05-23T12:46:16.301Z,22.54
2023-05-23T12:48:42.948Z,22.58
2023-05-23T12:51:09.525Z,22.85
2023-05-23T12:53:36.609Z,22.87
2023-05-23T12:56:03.760Z,22.95
2023-05-23T12:58:31.424Z,22.89
2023-05-23T13:00:59.184Z,22.92
2023-05-23T13:03:26.087Z,23.04
2023-05-23T13:05:53.875Z,23.22
2023-05-23T13:08:21.248Z,23.25
2023-05-23T13:10:48.279Z,23.23
2023-05-23T13:13:15.301Z,23.18
2023-05-23T13:15:42.473Z,23.15
2023-05-23T13:18:09.651Z,23.32
2023-05-23T13:20:36.308Z,23.38
2023-05-23T13:23:03.686Z,23.38
2023-05-23T13:25:30.422Z,23.15
2023-05-23T13:27:57.374Z,23.43
2023-05-23T13:30:24.706Z,23.47
2023-05-23T13:32:52.134Z,23.51
2023-05-23T13:35:18.953Z,23.37
2023-05-23T13:37:45.726Z,23.50
2023-05-23T13:40:18.238Z,23.48
2023-05-23T13:42:45.923Z,23.79
2023-05-23T13:45:12.555Z,24.05
2023-05-23T13:47:39.215Z,24.02
2023-05-23T13:50:07.368Z,23.88
2023-05-23T13:52:34.114Z,23.84
2023-05-23T13:55:01.681Z,23.74
2023-05-23T13:57:28.311Z,23.75
2023-05-23T13:59:54.852Z,23.89
2023-05-23T14:02:22.796Z,23.90
2023-05-23T14:04:50.190Z,23.93
2023-05-23T14:07:18.466Z,23.84
2023-05-23T14:09:45.400Z,23.72
2023-05-23T14:12:11.971Z,23.73
2023-05-23T14:14:38.540Z,23.65
2023-05-23T14:17:05.824Z,23.80
2023-05-23T14:19:32.614Z,23.79
2023-05-23T14:21:59.499Z,23.97
2023-05-23T14:24:26.169Z,24.01
2023-05-23T14:26:52.760Z,24.07
2023-05-23T14:29:20.835Z,24.34
2023-05-23T14:31:47.468Z,24.32
2023-05-23T14:34:14.126Z,24.47
2023-05-23T14:36:41.084Z,24.58
2023-05-23T14:39:10.653Z,24.81
2023-05-23T14:41:37.679Z,24.93
2023-05-23T14:44:05.592Z,24.99
2023-05-23T14:46:32.495Z,25.09
2023-05-23T14:48:59.111Z,25.04
2023-05-23T14:51:43.233Z,25.08
2023-05-23T14:54:12.520Z,25.17
2023-05-23T14:56:41.212Z,25.11
2023-05-23T14:59:08.170Z,24.99
2023-05-23T15:01:35.714Z,25.22
2023-05-23T15:04:05.799Z,25.45
2023-05-23T15:06:32.463Z,25.38
2023-05-23T15:08:59.047Z,25.41
2023-05-23T15:11:27.730Z,25.22
2023-05-23T15:13:54.560Z,25.33
2023-05-23T15:16:21.935Z,24.97
2023-05-23T15:18:48.803Z,25.13
2023-05-23T15:21:15.628Z,25.23
2023-05-23T15:23:42.239Z,25.12
2023-05-23T15:26:08.892Z,25.03
2023-05-23T15:28:35.478Z,25.27
2023-05-23T15:31:02.202Z,25.24
2023-05-23T15:33:28.795Z,25.28
2023-05-23T15:35:55.981Z,25.36
2023-05-23T15:38:22.572Z,25.35
2023-05-23T15:40:49.379Z,25.32
2023-05-23T15:43:16.001Z,25.71
2023-05-23T15:45:43.289Z,25.69
2023-05-23T15:48:09.955Z,25.88
2023-05-23T15:50:36.699Z,25.60
2023-05-23T15:53:03.265Z,25.54
2023-05-23T15:55:29.837Z,25.76
2023-05-23T15:57:56.457Z,25.83
2023-05-23T16:00:23.132Z,25.77
2023-05-23T16:02:49.835Z,25.58
2023-05-23T16:05:16.587Z,25.44
2023-05-23T16:07:43.264Z,25.46
2023-05-23T16:10:10.255Z,25.63
2023-05-23T16:12:36.874Z,25.69
2023-05-23T16:15:03.726Z,25.76
2023-05-23T16:17:30.324Z,25.63
2023-05-23T16:19:57.069Z,25.87
2023-05-23T16:22:23.863Z,26.24
2023-05-23T16:24:50.486Z,26.01
2023-05-23T16:27:17.106Z,26.06
2023-05-23T16:29:44.226Z,26.00
2023-05-23T16:32:11.034Z,25.75
2023-05-23T16:34:37.692Z,25.82
2023-05-23T16:37:04.441Z,26.16
2023-05-23T16:39:31.434Z,26.08
2023-05-23T16:42:00.301Z,25.89
2023-05-23T16:44:27.258Z,25.99
2023-05-23T16:46:54.041Z,26.32
2023-05-23T16:49:21.108Z,26.47
2023-05-23T16:51:49.205Z,26.87
2023-05-23T16:54:16.767Z,26.84
2023-05-23T16:56:43.654Z,26.90
2023-05-23T16:59:10.237Z,26.51
2023-05-23T17:01:36.926Z,26.87
2023-05-23T17:04:04.555Z,27.15
2023-05-23T17:06:31.438Z,27.38
2023-05-23T17:08:58.040Z,27.05
2023-05-23T17:11:25.496Z,27.30
2023-05-23T17:13:52.289Z,27.24
2023-05-23T17:16:20.684Z,27.88
2023-05-23T17:18:47.732Z,28.50
2023-05-23T17:21:14.344Z,28.50
2023-05-23T17:23:41.035Z,29.21
2023-05-23T17:26:07.690Z,29.06
2023-05-23T17:28:34.245Z,28.49
2023-05-23T17:31:01.012Z,28.58
2023-05-23T17:33:27.694Z,27.00
2023-05-23T17:35:54.317Z,27.26
2023-05-23T17:38:20.927Z,27.86
2023-05-23T17:40:47.596Z,28.19
2023-05-23T17:43:14.235Z,28.50
2023-05-23T17:45:41.507Z,29.05
2023-05-23T17:48:08.216Z,29.16
2023-05-23T17:50:34.828Z,29.09
2023-05-23T17:53:04.105Z,28.90
2023-05-23T17:55:31.067Z,29.11
2023-05-23T17:57:57.775Z,28.74
2023-05-23T18:00:24.512Z,28.49
2023-05-23T18:02:51.942Z,28.49
2023-05-23T18:05:21.219Z,28.44
2023-05-23T18:07:47.782Z,28.11
2023-05-23T18:10:14.468Z,27.69
2023-05-23T18:12:41.187Z,27.47
2023-05-23T18:15:08.948Z,27.28
2023-05-23T18:17:36.138Z,26.88
2023-05-23T18:20:02.912Z,26.44
2023-05-23T18:22:31.744Z,25.95
2023-05-23T18:24:58.392Z,25.52
2023-05-23T18:27:25.088Z,24.87
2023-05-23T18:29:51.735Z,24.71
2023-05-23T18:32:18.408Z,24.17
2023-05-23T18:34:44.976Z,23.88
2023-05-23T18:37:11.590Z,23.63
2023-05-23T18:39:38.715Z,23.25
2023-05-23T18:42:05.725Z,22.93
2023-05-23T18:44:32.381Z,22.44
2023-05-23T18:46:59.059Z,22.39
2023-05-23T18:49:25.693Z,22.49
2023-05-23T18:51:54.428Z,22.18
2023-05-23T18:54:21.275Z,22.21
2023-05-23T18:56:47.889Z,22.11
2023-05-23T18:59:15.928Z,22.06
2023-05-23T19:01:42.738Z,22.01
2023-05-23T19:04:10.036Z,21.69
2023-05-23T19:06:36.907Z,21.65
2023-05-23T19:09:09.427Z,21.29
2023-05-23T19:11:37.406Z,21.33
2023-05-23T19:14:04.182Z,21.22
2023-05-23T19:16:31.431Z,20.89
2023-05-23T19:18:58.105Z,20.65
2023-05-23T19:21:24.702Z,20.57
2023-05-23T19:23:51.520Z,20.64
2023-05-23T19:26:19.890Z,20.33
2023-05-23T19:28:47.098Z,20.44
2023-05-23T19:31:13.715Z,20.41
2023-05-23T19:33:40.394Z,20.41
2023-05-23T19:36:06.978Z,20.34
2023-05-23T19:38:33.611Z,20.42
2023-05-23T19:41:00.197Z,20.41
2023-05-23T19:43:27.110Z,20.36
2023-05-23T19:45:53.710Z,20.25
2023-05-23T19:48:20.764Z,20.25
2023-05-23T19:50:47.652Z,20.29
2023-05-23T19:53:14.720Z,20.25
2023-05-23T19:55:42.789Z,20.27
2023-05-23T19:58:09.434Z,20.10
2023-05-23T20:00:36.327Z,20.13
2023-05-23T20:03:03.671Z,19.76
2023-05-23T20:05:30.349Z,19.60
2023-05-23T20:07:57.233Z,19.65
2023-05-23T20:10:25.016Z,19.59
2023-05-23T20:12:51.651Z,19.72
2023-05-23T20:15:27.676Z,19.67
2023-05-23T20:18:05.910Z,19.54
2023-05-23T20:20:32.771Z,19.38
2023-05-23T20:22:59.409Z,19.19
2023-05-23T20:25:28.911Z,19.16
2023-05-23T20:27:58.646Z,19.02
2023-05-23T20:30:25.416Z,18.79
2023-05-23T20:32:54.164Z,19.11
2023-05-23T20:35:22.271Z,18.60
2023-05-23T20:37:51.685Z,18.85
2023-05-23T20:40:18.478Z,18.77
2023-05-23T20:42:48.019Z,18.59
2023-05-23T20:45:15.560Z,18.62
2023-05-23T20:47:42.724Z,18.56
2023-05-23T20:50:11.190Z,18.73
2023-05-23T20:52:41.431Z,18.75
2023-05-23T20:55:08.944Z,18.80
2023-05-23T20:57:38.096Z,18.72
2023-05-23T21:00:12.343Z,18.59
2023-05-23T21:02:39.782Z,18.71
2023-05-23T21:05:07.554Z,18.80
2023-05-23T21:07:34.627Z,18.67
2023-05-23T21:10:03.656Z,18.60
2023-05-23T21:12:30.930Z,18.58
2023-05-23T21:15:03.015Z,18.61
2023-05-23T21:17:32.464Z,18.64
2023-05-23T21:19:59.774Z,18.66
2023-05-23T21:22:27.035Z,18.56
2023-05-23T21:24:54.180Z,18.19
2023-05-23T21:27:21.360Z,18.35
2023-05-23T21:29:48.083Z,18.09
2023-05-23T21:32:14.721Z,18.12
2023-05-23T21:34:41.676Z,18.03
2023-05-23T21:37:08.237Z,17.91
2023-05-23T21:39:50.069Z,17.96
2023-05-23T21:42:19.671Z,17.93
2023-05-23T21:44:46.855Z,17.93
2023-05-23T21:47:16.954Z,18.14
2023-05-23T21:49:43.585Z,18.25
2023-05-23T21:52:10.199Z,18.33
2023-05-23T21:54:36.757Z,18.36
2023-05-23T21:57:05.275Z,18.29
2023-05-23T21:59:31.879Z,17.98
2023-05-23T22:01:58.570Z,17.95
2023-05-23T22:04:25.325Z,18.04
2023-05-23T22:06:52.738Z,17.99
2023-05-23T22:09:20.089Z,18.07
2023-05-23T22:11:46.760Z,18.00
2023-05-23T22:14:13.776Z,18.03
2023-05-23T22:16:40.843Z,18.12
2023-05-23T22:19:10.028Z,18.15
2023-05-23T22:21:36.956Z,18.14
2023-05-23T22:24:03.851Z,18.21
2023-05-23T22:26:30.724Z,18.24
2023-05-23T22:28:57.371Z,18.25
2023-05-23T22:31:24.271Z,18.19
2023-05-23T22:33:51.398Z,18.20
2023-05-23T22:36:18.089Z,18.14
2023-05-23T22:38:44.941Z,18.17
2023-05-23T22:41:11.709Z,18.20
2023-05-23T22:43:38.613Z,18.10
2023-05-23T22:46:05.541Z,18.12
2023-05-23T22:48:33.829Z,18.03
2023-05-23T22:51:02.267Z,17.82
2023-05-23T22:53:29.965Z,17.85
2023-05-23T22:55:56.881Z,17.82
2023-05-23T22:58:23.491Z,17.87
2023-05-23T23:00:50.253Z,17.90
2023-05-23T23:03:17.035Z,17.94
2023-05-23T23:05:44.412Z,17.93
2023-05-23T23:08:11.078Z,17.92
2023-05-23T23:10:38.698Z,17.87
2023-05-23T23:13:05.386Z,17.79
2023-05-23T23:15:33.893Z,17.87
2023-05-23T23:18:01.263Z,17.77
2023-05-23T23:20:28.334Z,17.81
2023-05-23T23:22:55.055Z,17.78
2023-05-23T23:25:22.109Z,17.75
2023-05-23T23:27:48.853Z,17.84
2023-05-23T23:30:15.741Z,17.85
2023-05-23T23:32:42.386Z,17.80
2023-05-23T23:35:09.216Z,17.79
2023-05-23T23:37:35.844Z,17.73
2023-05-23T23:40:02.597Z,17.70
2023-05-23T23:42:29.191Z,17.67
2023-05-23T23:44:56.363Z,17.73
2023-05-23T23:47:22.971Z,17.59
2023-05-23T23:49:49.594Z,17.51
2023-05-23T23:52:16.284Z,17.47
2023-05-23T23:54:42.987Z,17.54
2023-05-23T23:57:13.835Z,17.47
2023-05-23T23:59:44.187Z,17.40
